createdAt,value
2022-12-16T00:01:07.375Z,97296.00
2022-12-16T00:03:36.062Z,97296.00
2022-12-16T00:06:05.895Z,97285.00
2022-12-16T00:08:34.510Z,97274.00
2022-12-16T00:11:02.698Z,97282.00
2022-12-16T00:13:31.937Z,97293.00
2022-12-16T00:16:00.432Z,97283.00
2022-12-16T00:18:28.557Z,97279.00
2022-12-16T00:20:56.764Z,97277.00
2022-12-16T00:23:26.637Z,97281.00
2022-12-16T00:25:54.719Z,97284.00
2022-12-16T00:28:23.344Z,97285.00
2022-12-16T00:30:51.709Z,97268.00
2022-12-16T00:33:20.711Z,97262.00
2022-12-16T00:35:48.893Z,97274.00
2022-12-16T00:38:17.111Z,97272.00
2022-12-16T00:40:46.512Z,97271.00
2022-12-16T00:43:14.561Z,97264.00
2022-12-16T00:45:42.663Z,97271.00
2022-12-16T00:48:10.712Z,97269.00
2022-12-16T00:50:38.789Z,97268.00
2022-12-16T00:53:07.108Z,97268.00
2022-12-16T00:55:36.471Z,97280.00
2022-12-16T00:58:06.132Z,97279.00
2022-12-16T01:00:34.304Z,97279.00
2022-12-16T01:03:02.520Z,97277.00
2022-12-16T01:05:30.822Z,97281.00
2022-12-16T01:07:58.868Z,97277.00
2022-12-16T01:10:26.982Z,97285.00
2022-12-16T01:12:55.058Z,97281.00
2022-12-16T01:15:24.787Z,97296.00
2022-12-16T01:17:52.951Z,97286.00
2022-12-16T01:20:23.431Z,97293.00
2022-12-16T01:22:51.553Z,97294.00
2022-12-16T01:25:20.279Z,97278.00
2022-12-16T01:27:48.608Z,97295.00
2022-12-16T01:30:16.884Z,97308.00
2022-12-16T01:32:46.329Z,97302.00
2022-12-16T01:35:51.048Z,97293.00
2022-12-16T01:38:02.525Z,97302.00
2022-12-16T01:40:30.607Z,97304.00
2022-12-16T01:42:58.737Z,97310.00
2022-12-16T01:45:34.134Z,97311.00
2022-12-16T01:48:06.248Z,97310.00
2022-12-16T01:50:35.131Z,97312.00
2022-12-16T01:53:04.431Z,97312.00
2022-12-16T01:55:34.925Z,97283.00
2022-12-16T01:58:05.246Z,97316.00
2022-12-16T02:00:33.334Z,97292.00
2022-12-16T02:03:01.474Z,97304.00
2022-12-16T02:05:31.277Z,97300.00
2022-12-16T02:08:02.070Z,97309.00
2022-12-16T02:10:38.480Z,97303.00
2022-12-16T02:13:09.492Z,97304.00
2022-12-16T02:15:39.789Z,97315.00
2022-12-16T02:18:11.661Z,97308.00
2022-12-16T02:21:15.951Z,97315.00
2022-12-16T02:24:02.333Z,97304.00
2022-12-16T02:26:59.968Z,97317.00
2022-12-16T02:29:46.457Z,97318.00
2022-12-16T02:32:17.498Z,97312.00
2022-12-16T02:34:48.160Z,97320.00
2022-12-16T02:37:20.184Z,97312.00
2022-12-16T02:39:50.272Z,97306.00
2022-12-16T02:42:22.581Z,97311.00
2022-12-16T02:44:54.340Z,97305.00
2022-12-16T02:47:23.745Z,97307.00
2022-12-16T02:49:52.598Z,97309.00
2022-12-16T02:52:21.807Z,97299.00
2022-12-16T02:54:50.413Z,97322.00
2022-12-16T02:57:27.689Z,97316.00
2022-12-16T02:59:58.169Z,97315.00
2022-12-16T03:02:28.860Z,97307.00
2022-12-16T03:04:59.387Z,97307.00
2022-12-16T03:07:27.529Z,97299.00
2022-12-16T03:09:55.577Z,97305.00
2022-12-16T03:12:23.660Z,97321.00
2022-12-16T03:14:54.040Z,97326.00
2022-12-16T03:17:23.039Z,97320.00
2022-12-16T03:19:54.677Z,97329.00
2022-12-16T03:22:23.791Z,97329.00
2022-12-16T03:24:51.837Z,97328.00
2022-12-16T03:27:24.912Z,97336.00
2022-12-16T03:29:55.217Z,97329.00
2022-12-16T03:32:25.575Z,97330.00
2022-12-16T03:34:58.033Z,97340.00
2022-12-16T03:37:28.290Z,97332.00
2022-12-16T03:39:58.569Z,97317.00
2022-12-16T03:42:26.582Z,97331.00
2022-12-16T03:44:54.627Z,97337.00
2022-12-16T03:47:24.092Z,97332.00
2022-12-16T03:49:52.304Z,97346.00
2022-12-16T03:52:21.704Z,97350.00
2022-12-16T03:54:51.111Z,97343.00
2022-12-16T03:57:19.328Z,97351.00
2022-12-16T03:59:47.617Z,97345.00
2022-12-16T04:02:15.855Z,97362.00
2022-12-16T04:04:44.118Z,97360.00
2022-12-16T04:07:24.859Z,97358.00
2022-12-16T04:09:54.396Z,97368.00
2022-12-16T04:12:39.907Z,97334.00
2022-12-16T04:15:34.792Z,97365.00
2022-12-16T04:18:20.276Z,97375.00
2022-12-16T04:21:06.746Z,97383.00
2022-12-16T04:23:54.612Z,97374.00
2022-12-16T04:26:24.039Z,97372.00
2022-12-16T04:28:52.074Z,97375.00
2022-12-16T04:31:20.216Z,97381.00
2022-12-16T04:34:05.949Z,97383.00
2022-12-16T04:37:03.968Z,97387.00
2022-12-16T04:40:04.479Z,97380.00
2022-12-16T04:42:53.598Z,97384.00
2022-12-16T04:45:38.173Z,97382.00
2022-12-16T04:48:24.223Z,97387.00
2022-12-16T04:51:09.925Z,97390.00
2022-12-16T04:53:55.590Z,97389.00
2022-12-16T04:56:40.967Z,97386.00
2022-12-16T04:59:28.437Z,97390.00
2022-12-16T05:02:14.180Z,97391.00
2022-12-16T05:04:59.971Z,97413.00
2022-12-16T05:08:01.696Z,97406.00
2022-12-16T05:11:03.860Z,97412.00
2022-12-16T05:13:49.310Z,97421.00
2022-12-16T05:16:36.277Z,97407.00
2022-12-16T05:19:22.676Z,97414.00
2022-12-16T05:22:10.384Z,97417.00
2022-12-16T05:24:55.913Z,97420.00
2022-12-16T05:27:41.131Z,97417.00
2022-12-16T05:30:32.057Z,97424.00
2022-12-16T05:33:20.639Z,97432.00
2022-12-16T05:36:06.111Z,97436.00
2022-12-16T05:38:52.871Z,97454.00
2022-12-16T05:41:46.773Z,97450.00
2022-12-16T05:44:32.076Z,97441.00
2022-12-16T05:47:17.897Z,97446.00
2022-12-16T05:50:05.127Z,97443.00
2022-12-16T05:52:50.818Z,97455.00
2022-12-16T05:55:36.641Z,97443.00
2022-12-16T05:58:21.951Z,97450.00
2022-12-16T06:01:07.689Z,97457.00
2022-12-16T06:03:53.305Z,97457.00
2022-12-16T06:06:40.090Z,97463.00
2022-12-16T06:09:25.726Z,97473.00
2022-12-16T06:12:11.277Z,97482.00
2022-12-16T06:14:57.007Z,97478.00
2022-12-16T06:17:42.553Z,97494.00
2022-12-16T06:20:28.959Z,97492.00
2022-12-16T06:23:19.869Z,97495.00
2022-12-16T06:26:07.818Z,97514.00
2022-12-16T06:28:53.417Z,97503.00
2022-12-16T06:31:39.335Z,97517.00
2022-12-16T06:34:25.000Z,97518.00
2022-12-16T06:37:10.644Z,97521.00
2022-12-16T06:39:57.804Z,97530.00
2022-12-16T06:42:47.320Z,97540.00
2022-12-16T06:45:53.979Z,97543.00
2022-12-16T06:48:45.645Z,97552.00
2022-12-16T06:51:41.617Z,97560.00
2022-12-16T06:54:27.639Z,97553.00
2022-12-16T06:57:14.690Z,97563.00
2022-12-16T07:00:01.386Z,97563.00
2022-12-16T07:02:47.442Z,97573.00
2022-12-16T07:05:33.229Z,97566.00
2022-12-16T07:08:19.055Z,97574.00
2022-12-16T07:11:16.139Z,97573.00
2022-12-16T07:14:04.146Z,97593.00
2022-12-16T07:16:49.674Z,97585.00
2022-12-16T07:19:35.207Z,97586.00
2022-12-16T07:22:20.900Z,97598.00
2022-12-16T07:25:06.169Z,97590.00
2022-12-16T07:27:52.038Z,97599.00
2022-12-16T07:30:50.621Z,97595.00
2022-12-16T07:33:36.645Z,97604.00
2022-12-16T07:36:22.540Z,97600.00
2022-12-16T07:39:08.138Z,97588.00
2022-12-16T07:41:54.449Z,97607.00
2022-12-16T07:44:39.863Z,97614.00
2022-12-16T07:47:26.964Z,97617.00
2022-12-16T07:50:12.923Z,97625.00
2022-12-16T07:52:58.260Z,97613.00
2022-12-16T07:55:43.887Z,97621.00
2022-12-16T07:58:29.224Z,97635.00
2022-12-16T08:01:14.976Z,97632.00
2022-12-16T08:04:01.884Z,97640.00
2022-12-16T08:06:47.439Z,97646.00
2022-12-16T08:09:33.061Z,97657.00
2022-12-16T08:12:18.405Z,97652.00
2022-12-16T08:15:04.122Z,97643.00
2022-12-16T08:18:01.007Z,97642.00
2022-12-16T08:20:47.862Z,97678.00
2022-12-16T08:23:33.786Z,97671.00
2022-12-16T08:26:19.592Z,97683.00
2022-12-16T08:29:34.792Z,97682.00
2022-12-16T08:32:11.196Z,97682.00
2022-12-16T08:34:56.624Z,97680.00
2022-12-16T08:37:43.500Z,97697.00
2022-12-16T08:40:36.940Z,97700.00
2022-12-16T08:43:22.471Z,97694.00
2022-12-16T08:46:09.681Z,97711.00
2022-12-16T08:48:55.010Z,97715.00
2022-12-16T08:51:41.465Z,97725.00
2022-12-16T08:54:28.172Z,97729.00
2022-12-16T08:57:13.603Z,97736.00
2022-12-16T08:59:59.220Z,97743.00
2022-12-16T09:02:45.103Z,97723.00
2022-12-16T09:05:31.860Z,97739.00
2022-12-16T09:08:18.081Z,97733.00
2022-12-16T09:11:04.992Z,97728.00
2022-12-16T09:13:50.749Z,97736.00
2022-12-16T09:16:37.086Z,97730.00
2022-12-16T09:19:22.478Z,97740.00
2022-12-16T09:22:08.304Z,97749.00
2022-12-16T09:24:54.395Z,97705.00
2022-12-16T09:27:42.809Z,97754.00
2022-12-16T09:30:28.996Z,97761.00
2022-12-16T09:33:14.694Z,97756.00
2022-12-16T09:36:00.369Z,97771.00
2022-12-16T09:38:46.038Z,97770.00
2022-12-16T09:41:44.756Z,97774.00
2022-12-16T09:44:36.739Z,97777.00
2022-12-16T09:47:25.089Z,97768.00
2022-12-16T09:50:10.639Z,97789.00
2022-12-16T09:52:59.731Z,97751.00
2022-12-16T09:55:46.969Z,97784.00
2022-12-16T09:58:32.604Z,97776.00
2022-12-16T10:01:19.435Z,97741.00
2022-12-16T10:04:10.295Z,97797.00
2022-12-16T10:06:58.926Z,97758.00
2022-12-16T10:09:47.563Z,97773.00
2022-12-16T10:12:38.370Z,97790.00
2022-12-16T10:15:31.132Z,97792.00
2022-12-16T10:18:18.085Z,97784.00
2022-12-16T10:21:05.270Z,97786.00
2022-12-16T10:23:52.587Z,97766.00
2022-12-16T10:26:40.311Z,97792.00
2022-12-16T10:29:30.247Z,97785.00
2022-12-16T10:32:15.947Z,97777.00
2022-12-16T10:35:02.884Z,97739.00
2022-12-16T10:37:50.992Z,97714.00
2022-12-16T10:40:37.614Z,97781.00
2022-12-16T10:43:24.441Z,97789.00
2022-12-16T10:46:16.632Z,97802.00
2022-12-16T10:49:16.772Z,97736.00
2022-12-16T10:52:08.886Z,97740.00
2022-12-16T10:54:57.728Z,97805.00
2022-12-16T10:57:51.396Z,97802.00
2022-12-16T11:00:38.039Z,97800.00
2022-12-16T11:03:37.199Z,97794.00
2022-12-16T11:06:23.210Z,97816.00
2022-12-16T11:09:24.782Z,97787.00
2022-12-16T11:12:10.201Z,97799.00
2022-12-16T11:15:28.105Z,97806.00
2022-12-16T11:18:20.390Z,97818.00
2022-12-16T11:21:15.944Z,97819.00
2022-12-16T11:24:02.843Z,97821.00
2022-12-16T11:26:49.767Z,97743.00
2022-12-16T11:29:35.759Z,97816.00
2022-12-16T11:32:22.685Z,97818.00
2022-12-16T11:35:11.041Z,97822.00
2022-12-16T11:37:56.956Z,97800.00
2022-12-16T11:40:42.660Z,97806.00
2022-12-16T11:43:31.060Z,97811.00
2022-12-16T11:46:16.999Z,97806.00
2022-12-16T11:49:03.152Z,97822.00
2022-12-16T11:51:51.368Z,97833.00
2022-12-16T11:54:43.408Z,97832.00
2022-12-16T11:57:36.134Z,97842.00
2022-12-16T12:00:24.585Z,97844.00
2022-12-16T12:03:13.481Z,97861.00
2022-12-16T12:06:01.602Z,97841.00
2022-12-16T12:08:50.448Z,97853.00
2022-12-16T12:11:38.070Z,97864.00
2022-12-16T12:14:30.260Z,97834.00
2022-12-16T12:17:23.642Z,97862.00
2022-12-16T12:20:15.928Z,97862.00
2022-12-16T12:23:01.244Z,97848.00
2022-12-16T12:25:49.943Z,97835.00
2022-12-16T12:28:47.753Z,97863.00
2022-12-16T12:31:39.864Z,97866.00
2022-12-16T12:34:30.123Z,97873.00
2022-12-16T12:37:18.256Z,97872.00
2022-12-16T12:40:05.061Z,97885.00
2022-12-16T12:42:54.891Z,97885.00
2022-12-16T12:46:01.267Z,97890.00
2022-12-16T12:48:51.783Z,97880.00
2022-12-16T12:51:45.114Z,97878.00
2022-12-16T12:54:33.654Z,97898.00
2022-12-16T12:57:19.391Z,97900.00
2022-12-16T13:00:08.140Z,97902.00
2022-12-16T13:02:59.461Z,97908.00
2022-12-16T13:05:44.934Z,97926.00
2022-12-16T13:08:50.689Z,97909.00
2022-12-16T13:11:36.410Z,97907.00
2022-12-16T13:14:22.119Z,97899.00
2022-12-16T13:17:26.139Z,97919.00
2022-12-16T13:20:13.620Z,97917.00
2022-12-16T13:23:00.892Z,97922.00
2022-12-16T13:25:56.255Z,97909.00
2022-12-16T13:28:43.498Z,97918.00
2022-12-16T13:31:29.378Z,97924.00
2022-12-16T13:34:18.158Z,97932.00
2022-12-16T13:37:03.893Z,97942.00
2022-12-16T13:39:49.510Z,97945.00
2022-12-16T13:43:06.724Z,97946.00
2022-12-16T13:45:54.008Z,97961.00
2022-12-16T13:48:56.687Z,97957.00
2022-12-16T13:52:24.971Z,97971.00
2022-12-16T13:55:13.210Z,97985.00
2022-12-16T13:58:00.958Z,97982.00
2022-12-16T14:00:47.428Z,97995.00
2022-12-16T14:03:37.419Z,98004.00
2022-12-16T14:06:23.988Z,97994.00
2022-12-16T14:09:09.654Z,97981.00
2022-12-16T14:12:05.406Z,97980.00
2022-12-16T14:14:56.150Z,98002.00
2022-12-16T14:17:43.980Z,97998.00
2022-12-16T14:20:32.322Z,98001.00
2022-12-16T14:23:47.079Z,98029.00
2022-12-16T14:26:28.258Z,98016.00
2022-12-16T14:29:13.988Z,98007.00
2022-12-16T14:32:01.681Z,98033.00
2022-12-16T14:34:47.594Z,98033.00
2022-12-16T14:37:33.317Z,97970.00
2022-12-16T14:40:18.977Z,98030.00
2022-12-16T14:43:07.173Z,98040.00
2022-12-16T14:45:54.588Z,98033.00
2022-12-16T14:48:49.526Z,98045.00
2022-12-16T14:51:42.956Z,98051.00
2022-12-16T14:54:36.662Z,98046.00
2022-12-16T14:57:22.669Z,98053.00
2022-12-16T15:00:18.952Z,98050.00
2022-12-16T15:03:05.373Z,98070.00
2022-12-16T15:05:54.433Z,98045.00
2022-12-16T15:08:41.898Z,98058.00
2022-12-16T15:11:28.992Z,98066.00
2022-12-16T15:14:16.230Z,98088.00
2022-12-16T15:17:01.916Z,98086.00
2022-12-16T15:20:11.968Z,98090.00
2022-12-16T15:23:07.100Z,98061.00
2022-12-16T15:25:52.495Z,98090.00
2022-12-16T15:28:45.063Z,98117.00
2022-12-16T15:31:34.203Z,98112.00
2022-12-16T15:34:44.464Z,98111.00
2022-12-16T15:37:38.313Z,98100.00
2022-12-16T15:40:40.853Z,98115.00
2022-12-16T15:43:41.903Z,98120.00
2022-12-16T15:46:35.590Z,98135.00
2022-12-16T15:49:21.261Z,98132.00
2022-12-16T15:52:08.766Z,98115.00
2022-12-16T15:55:08.105Z,98134.00
2022-12-16T15:57:55.347Z,98143.00
2022-12-16T16:00:42.903Z,98144.00
2022-12-16T16:03:39.594Z,98137.00
2022-12-16T16:06:33.288Z,98116.00
2022-12-16T16:09:20.082Z,98159.00
2022-12-16T16:12:05.784Z,98169.00
2022-12-16T16:14:52.746Z,98173.00
2022-12-16T16:17:39.778Z,98174.00
2022-12-16T16:20:26.412Z,98160.00
2022-12-16T16:23:12.034Z,98169.00
2022-12-16T16:26:03.520Z,98165.00
2022-12-16T16:28:49.239Z,98180.00
2022-12-16T16:31:36.131Z,98194.00
2022-12-16T16:34:21.726Z,98184.00
2022-12-16T16:37:07.491Z,98196.00
2022-12-16T16:39:53.213Z,98194.00
2022-12-16T16:42:42.313Z,98206.00
2022-12-16T16:45:28.429Z,98195.00
2022-12-16T16:48:23.455Z,98227.00
2022-12-16T16:51:09.060Z,98206.00
2022-12-16T16:53:56.820Z,98201.00
2022-12-16T16:56:42.454Z,98224.00
2022-12-16T16:59:28.527Z,98212.00
2022-12-16T17:02:14.488Z,98240.00
2022-12-16T17:05:01.323Z,98222.00
2022-12-16T17:07:52.085Z,98232.00
2022-12-16T17:10:39.319Z,98226.00
2022-12-16T17:13:26.405Z,98241.00
2022-12-16T17:16:11.956Z,98187.00
2022-12-16T17:18:59.447Z,98227.00
2022-12-16T17:21:46.353Z,98227.00
2022-12-16T17:24:32.029Z,98212.00
2022-12-16T17:27:17.682Z,98247.00
2022-12-16T17:30:03.280Z,98253.00
2022-12-16T17:32:49.010Z,98238.00
2022-12-16T17:35:34.763Z,98267.00
2022-12-16T17:38:21.926Z,98273.00
2022-12-16T17:41:25.154Z,98243.00
2022-12-16T17:44:11.159Z,98267.00
2022-12-16T17:46:56.728Z,98245.00
2022-12-16T17:49:42.398Z,98274.00
2022-12-16T17:52:28.064Z,98279.00
2022-12-16T17:55:14.763Z,98283.00
2022-12-16T17:58:00.463Z,98289.00
2022-12-16T18:00:54.383Z,98291.00
2022-12-16T18:03:40.448Z,98284.00
2022-12-16T18:06:26.506Z,98298.00
2022-12-16T18:09:12.284Z,98299.00
2022-12-16T18:11:59.196Z,98294.00
2022-12-16T18:14:50.050Z,98310.00
2022-12-16T18:17:35.622Z,98307.00
2022-12-16T18:20:21.284Z,98327.00
2022-12-16T18:23:06.961Z,98329.00
2022-12-16T18:25:52.950Z,98327.00
2022-12-16T18:28:39.521Z,98337.00
2022-12-16T18:31:25.238Z,98351.00
2022-12-16T18:34:11.445Z,98335.00
2022-12-16T18:36:57.054Z,98334.00
2022-12-16T18:39:43.205Z,98350.00
2022-12-16T18:42:28.832Z,98358.00
2022-12-16T18:45:15.734Z,98358.00
2022-12-16T18:48:01.465Z,98352.00
2022-12-16T18:50:47.062Z,98364.00
2022-12-16T18:53:32.922Z,98367.00
2022-12-16T18:56:20.657Z,98365.00
2022-12-16T18:59:06.235Z,98371.00
2022-12-16T19:01:54.300Z,98382.00
2022-12-16T19:04:39.772Z,98391.00
2022-12-16T19:07:25.247Z,98342.00
2022-12-16T19:10:10.861Z,98364.00
2022-12-16T19:12:56.546Z,98384.00
2022-12-16T19:15:42.109Z,98388.00
2022-12-16T19:18:29.722Z,98391.00
2022-12-16T19:21:15.320Z,98350.00
2022-12-16T19:24:00.913Z,98391.00
2022-12-16T19:26:46.468Z,98408.00
2022-12-16T19:29:31.994Z,98432.00
2022-12-16T19:32:17.515Z,98352.00
2022-12-16T19:35:04.550Z,98426.00
2022-12-16T19:37:50.086Z,98428.00
2022-12-16T19:40:35.605Z,98425.00
2022-12-16T19:43:21.176Z,98427.00
2022-12-16T19:46:10.858Z,98408.00
2022-12-16T19:48:56.565Z,98442.00
2022-12-16T19:51:43.384Z,98420.00
2022-12-16T19:54:28.935Z,98426.00
2022-12-16T19:57:14.703Z,98453.00
2022-12-16T20:00:00.331Z,98454.00
2022-12-16T20:02:46.337Z,98453.00
2022-12-16T20:05:28.996Z,98457.00
2022-12-16T20:08:16.085Z,98471.00
2022-12-16T20:11:01.884Z,98485.00
2022-12-16T20:13:47.488Z,98446.00
2022-12-16T20:16:33.174Z,98441.00
2022-12-16T20:19:18.966Z,98487.00
2022-12-16T20:25:11.678Z,98497.00
2022-12-16T20:27:57.418Z,98504.00
2022-12-16T20:30:42.995Z,98495.00
2022-12-16T20:33:31.317Z,98496.00
2022-12-16T20:36:17.060Z,98518.00
2022-12-16T20:39:02.388Z,98454.00
2022-12-16T20:41:49.375Z,98492.00
2022-12-16T20:44:35.028Z,98511.00
2022-12-16T20:47:20.577Z,98505.00
2022-12-16T20:50:06.164Z,98505.00
2022-12-16T20:52:51.788Z,98519.00
2022-12-16T20:55:42.663Z,98535.00
2022-12-16T20:58:29.532Z,98551.00
2022-12-16T21:01:15.256Z,98541.00
2022-12-16T21:04:00.998Z,98528.00
2022-12-16T21:06:46.826Z,98541.00
2022-12-16T21:09:32.478Z,98548.00
2022-12-16T21:12:18.044Z,98528.00
2022-12-16T21:15:05.119Z,98522.00
2022-12-16T21:17:50.787Z,98554.00
2022-12-16T21:20:36.924Z,98564.00
2022-12-16T21:23:24.588Z,98543.00
2022-12-16T21:26:10.231Z,98560.00
2022-12-16T21:28:56.368Z,98559.00
2022-12-16T21:31:43.596Z,98559.00
2022-12-16T21:34:29.191Z,98576.00
2022-12-16T21:37:14.968Z,98565.00
2022-12-16T21:40:00.478Z,98571.00
2022-12-16T21:42:46.005Z,98572.00
2022-12-16T21:45:31.459Z,98581.00
2022-12-16T21:48:18.311Z,98568.00
2022-12-16T21:51:09.520Z,98586.00
2022-12-16T21:53:55.297Z,98606.00
2022-12-16T21:56:38.663Z,98586.00
2022-12-16T21:59:24.324Z,98596.00
2022-12-16T22:02:10.141Z,98617.00
2022-12-16T22:04:57.055Z,98630.00
2022-12-16T22:07:42.952Z,98627.00
2022-12-16T22:10:28.547Z,98641.00
2022-12-16T22:13:14.155Z,98604.00
2022-12-16T22:19:06.010Z,98614.00
2022-12-16T22:21:52.919Z,98620.00
2022-12-16T22:24:38.950Z,98637.00
2022-12-16T22:27:24.458Z,98642.00
2022-12-16T22:30:10.591Z,98637.00
2022-12-16T22:32:56.616Z,98650.00
2022-12-16T22:35:42.199Z,98646.00
2022-12-16T22:38:29.068Z,98649.00
2022-12-16T22:41:14.703Z,98647.00
2022-12-16T22:44:00.339Z,98651.00
2022-12-16T22:46:45.998Z,98637.00
2022-12-16T22:49:31.407Z,98627.00
2022-12-16T22:52:17.003Z,98655.00
2022-12-16T22:55:04.016Z,98647.00
2022-12-16T22:57:50.871Z,98652.00
2022-12-16T23:00:38.962Z,98658.00
2022-12-16T23:03:24.492Z,98651.00
2022-12-16T23:06:24.482Z,98674.00
2022-12-16T23:09:10.022Z,98680.00
2022-12-16T23:11:57.556Z,98678.00
2022-12-16T23:14:43.346Z,98669.00
2022-12-16T23:17:28.760Z,98681.00
2022-12-16T23:20:14.188Z,98676.00
2022-12-16T23:22:59.828Z,98689.00
2022-12-16T23:25:45.369Z,98685.00
2022-12-16T23:28:32.250Z,98680.00
2022-12-16T23:31:17.907Z,98665.00
2022-12-16T23:32:30.619Z,98611.00
2022-12-16T23:32:30.910Z,98482.00
2022-12-16T23:34:03.462Z,98685.00
2022-12-16T23:36:49.224Z,98694.00
2022-12-16T23:39:34.710Z,98687.00
2022-12-16T23:42:20.267Z,98692.00
2022-12-16T23:45:07.407Z,98700.00
2022-12-16T23:47:52.874Z,98695.00
2022-12-16T23:50:42.660Z,98685.00
2022-12-16T23:53:28.933Z,98703.00
2022-12-16T23:56:14.638Z,98713.00
2022-12-16T23:59:00.306Z,98714.00
